createdAt,value
2023-03-06T00:01:00.814Z,100593.03
2023-03-06T00:03:28.590Z,100607.03
2023-03-06T00:05:57.506Z,100595.22
2023-03-06T00:08:26.595Z,100598.34
2023-03-06T00:10:54.707Z,100597.00
2023-03-06T00:13:22.418Z,100596.69
2023-03-06T00:15:49.773Z,100593.44
2023-03-06T00:18:17.027Z,100590.69
2023-03-06T00:20:44.344Z,100592.81
2023-03-06T00:23:12.477Z,100591.03
2023-03-06T00:25:43.132Z,100590.31
2023-03-06T00:28:12.324Z,100583.75
2023-03-06T00:30:40.069Z,100583.38
2023-03-06T00:33:07.843Z,100576.16
2023-03-06T00:35:35.203Z,100573.41
2023-03-06T00:38:05.287Z,100572.19
2023-03-06T00:40:33.584Z,100565.75
2023-03-06T00:43:01.094Z,100564.16
2023-03-06T00:45:28.358Z,100564.41
2023-03-06T00:47:55.654Z,100555.94
2023-03-06T00:50:23.020Z,100557.72
2023-03-06T00:52:50.417Z,100554.72
2023-03-06T00:55:17.807Z,100559.53
2023-03-06T00:57:45.095Z,100559.41
2023-03-06T01:00:13.186Z,100562.88
2023-03-06T01:02:41.339Z,100567.03
2023-03-06T01:05:09.693Z,100572.00
2023-03-06T01:07:37.996Z,100569.34
2023-03-06T01:10:08.150Z,100568.72
2023-03-06T01:12:35.670Z,100567.50
2023-03-06T01:15:04.044Z,100570.44
2023-03-06T01:17:31.405Z,100565.50
2023-03-06T01:19:58.838Z,100567.16
2023-03-06T01:22:26.313Z,100552.78
2023-03-06T01:24:53.614Z,100556.53
2023-03-06T01:27:22.050Z,100559.16
2023-03-06T01:29:49.547Z,100561.06
2023-03-06T01:32:17.165Z,100558.56
2023-03-06T01:34:44.495Z,100554.09
2023-03-06T01:37:11.841Z,100554.25
2023-03-06T01:39:39.294Z,100549.16
2023-03-06T01:42:07.080Z,100548.91
2023-03-06T01:44:34.444Z,100545.47
2023-03-06T01:47:02.420Z,100544.16
2023-03-06T01:49:35.543Z,100536.94
2023-03-06T01:52:15.213Z,100534.38
2023-03-06T01:54:45.766Z,100535.25
2023-03-06T01:57:18.089Z,100536.53
2023-03-06T01:59:48.771Z,100543.75
2023-03-06T02:02:16.482Z,100539.31
2023-03-06T02:04:44.292Z,100520.72
2023-03-06T02:07:12.330Z,100532.47
2023-03-06T02:09:39.945Z,100524.91
2023-03-06T02:12:15.568Z,100528.66
2023-03-06T02:14:43.688Z,100522.34
2023-03-06T02:17:13.280Z,100516.00
2023-03-06T02:20:03.750Z,100513.75
2023-03-06T02:23:01.053Z,100513.78
2023-03-06T02:25:32.073Z,100511.28
2023-03-06T02:28:01.687Z,100500.06
2023-03-06T02:30:31.571Z,100502.00
2023-03-06T02:32:59.026Z,100494.13
2023-03-06T02:35:30.346Z,100498.31
2023-03-06T02:37:59.353Z,100493.09
2023-03-06T02:40:26.737Z,100496.44
2023-03-06T02:42:58.612Z,100492.13
2023-03-06T02:45:42.614Z,100483.47
2023-03-06T02:48:10.132Z,100486.66
2023-03-06T02:50:37.795Z,100478.88
2023-03-06T02:53:05.971Z,100472.03
2023-03-06T02:55:33.984Z,100484.16
2023-03-06T02:58:02.149Z,100473.81
2023-03-06T03:00:30.472Z,100459.88
2023-03-06T03:02:58.032Z,100459.72
2023-03-06T03:05:26.516Z,100455.50
2023-03-06T03:08:00.105Z,100450.63
2023-03-06T03:10:28.620Z,100452.75
2023-03-06T03:12:56.127Z,100449.81
2023-03-06T03:15:25.478Z,100445.03
2023-03-06T03:17:53.178Z,100443.72
2023-03-06T03:20:22.064Z,100449.59
2023-03-06T03:22:51.318Z,100450.84
2023-03-06T03:25:19.709Z,100456.25
2023-03-06T03:27:47.782Z,100459.41
2023-03-06T03:30:15.858Z,100462.41
2023-03-06T03:32:43.830Z,100458.94
2023-03-06T03:35:13.169Z,100450.31
2023-03-06T03:37:44.929Z,100444.97
2023-03-06T03:40:13.298Z,100451.28
2023-03-06T03:42:40.965Z,100442.72
2023-03-06T03:45:11.686Z,100440.66
2023-03-06T03:47:40.778Z,100450.47
2023-03-06T03:50:09.144Z,100441.53
2023-03-06T03:52:37.339Z,100439.59
2023-03-06T03:55:05.552Z,100446.31
2023-03-06T03:57:33.374Z,100438.09
2023-03-06T04:00:01.774Z,100439.75
2023-03-06T04:02:42.149Z,100443.56
2023-03-06T04:05:24.352Z,100437.06
2023-03-06T04:07:51.600Z,100436.78
2023-03-06T04:10:19.785Z,100433.56
2023-03-06T04:12:50.626Z,100426.63
2023-03-06T04:15:18.173Z,100427.16
2023-03-06T04:17:47.207Z,100432.41
2023-03-06T04:20:18.515Z,100430.16
2023-03-06T04:22:47.365Z,100427.19
2023-03-06T04:25:14.758Z,100421.22
2023-03-06T04:27:42.270Z,100423.88
2023-03-06T04:30:14.033Z,100414.56
2023-03-06T04:32:41.865Z,100413.28
2023-03-06T04:35:12.632Z,100411.56
2023-03-06T04:37:50.886Z,100417.16
2023-03-06T04:40:29.544Z,100413.81
2023-03-06T04:42:58.773Z,100414.09
2023-03-06T04:45:27.511Z,100415.69
2023-03-06T04:47:55.397Z,100406.91
2023-03-06T04:50:24.065Z,100411.13
2023-03-06T04:52:52.056Z,100406.38
2023-03-06T04:55:19.922Z,100410.91
2023-03-06T04:57:47.754Z,100411.16
2023-03-06T05:00:19.391Z,100401.69
2023-03-06T05:02:47.047Z,100392.91
2023-03-06T05:05:15.245Z,100397.31
2023-03-06T05:07:42.778Z,100406.69
2023-03-06T05:10:15.337Z,100403.66
2023-03-06T05:12:43.113Z,100406.09
2023-03-06T05:15:11.717Z,100398.78
2023-03-06T05:17:39.115Z,100408.69
2023-03-06T05:20:09.731Z,100406.28
2023-03-06T05:22:37.174Z,100397.06
2023-03-06T05:25:05.306Z,100407.22
2023-03-06T05:27:32.671Z,100403.31
2023-03-06T05:30:00.132Z,100407.94
2023-03-06T05:32:27.692Z,100398.19
2023-03-06T05:34:55.332Z,100392.44
2023-03-06T05:37:23.250Z,100395.13
2023-03-06T05:39:51.076Z,100401.78
2023-03-06T05:42:18.834Z,100399.84
2023-03-06T05:44:46.615Z,100398.94
2023-03-06T05:47:14.299Z,100392.56
2023-03-06T05:49:41.592Z,100395.16
2023-03-06T05:52:09.114Z,100378.53
2023-03-06T05:54:37.277Z,100382.69
2023-03-06T05:57:05.333Z,100391.63
2023-03-06T05:59:33.289Z,100385.03
2023-03-06T06:02:01.229Z,100376.69
2023-03-06T06:04:28.603Z,100367.91
2023-03-06T06:06:58.005Z,100344.47
2023-03-06T06:09:26.140Z,100346.34
2023-03-06T06:11:56.211Z,100351.78
2023-03-06T06:14:23.889Z,100355.34
2023-03-06T06:16:51.954Z,100357.25
2023-03-06T06:19:20.225Z,100346.91
2023-03-06T06:21:49.916Z,100344.69
2023-03-06T06:24:19.397Z,100344.97
2023-03-06T06:26:47.332Z,100348.00
2023-03-06T06:29:14.852Z,100360.28
2023-03-06T06:31:42.442Z,100361.16
2023-03-06T06:34:11.495Z,100362.19
2023-03-06T06:36:39.587Z,100361.88
2023-03-06T06:39:08.103Z,100365.97
2023-03-06T06:41:59.501Z,100361.59
2023-03-06T06:44:23.197Z,100374.81
2023-03-06T06:47:21.378Z,100374.63
2023-03-06T06:49:38.162Z,100381.72
2023-03-06T06:52:06.297Z,100390.03
2023-03-06T06:54:36.842Z,100387.75
2023-03-06T06:57:04.240Z,100390.97
2023-03-06T06:59:31.835Z,100395.81
2023-03-06T07:01:59.150Z,100396.97
2023-03-06T07:04:26.392Z,100398.19
2023-03-06T07:06:56.170Z,100392.06
2023-03-06T07:09:23.787Z,100398.28
2023-03-06T07:11:51.171Z,100395.88
2023-03-06T07:14:18.689Z,100398.34
2023-03-06T07:16:46.104Z,100399.22
2023-03-06T07:19:13.505Z,100396.16
2023-03-06T07:21:40.923Z,100395.41
2023-03-06T07:24:08.349Z,100396.88
2023-03-06T07:26:35.834Z,100393.06
2023-03-06T07:29:05.863Z,100394.69
2023-03-06T07:31:35.482Z,100400.59
2023-03-06T07:34:04.896Z,100395.25
2023-03-06T07:36:33.914Z,100394.88
2023-03-06T07:39:01.391Z,100391.97
2023-03-06T07:41:28.644Z,100391.81
2023-03-06T07:43:55.947Z,100393.34
2023-03-06T07:46:23.521Z,100387.78
2023-03-06T07:48:51.023Z,100392.81
2023-03-06T07:51:20.645Z,100389.41
2023-03-06T07:53:49.011Z,100383.75
2023-03-06T07:56:16.541Z,100388.41
2023-03-06T07:58:45.630Z,100387.75
2023-03-06T08:01:16.206Z,100382.06
2023-03-06T08:03:44.127Z,100383.53
2023-03-06T08:06:14.262Z,100395.22
2023-03-06T08:08:42.041Z,100390.63
2023-03-06T08:11:11.064Z,100386.47
2023-03-06T08:13:39.112Z,100385.38
2023-03-06T08:16:07.111Z,100392.75
2023-03-06T08:18:35.001Z,100395.66
2023-03-06T08:21:06.930Z,100398.00
2023-03-06T08:23:35.109Z,100398.00
2023-03-06T08:26:05.900Z,100407.94
2023-03-06T08:28:33.429Z,100387.00
2023-03-06T08:31:08.896Z,100408.91
2023-03-06T08:33:36.853Z,100403.13
2023-03-06T08:36:04.808Z,100413.41
2023-03-06T08:38:32.199Z,100410.84
2023-03-06T08:40:59.631Z,100412.72
2023-03-06T08:43:27.191Z,100425.25
2023-03-06T08:45:56.304Z,100416.88
2023-03-06T08:48:24.159Z,100413.97
2023-03-06T08:50:51.678Z,100412.00
2023-03-06T08:53:19.103Z,100416.16
2023-03-06T08:55:46.800Z,100414.38
2023-03-06T08:58:14.216Z,100421.63
2023-03-06T09:00:41.574Z,100421.09
2023-03-06T09:03:09.276Z,100421.34
2023-03-06T09:05:37.060Z,100419.22
2023-03-06T09:08:05.066Z,100425.22
2023-03-06T09:10:32.352Z,100425.75
2023-03-06T09:12:59.781Z,100420.63
2023-03-06T09:15:27.347Z,100427.31
2023-03-06T09:17:54.882Z,100420.34
2023-03-06T09:20:22.278Z,100425.34
2023-03-06T09:22:49.560Z,100430.31
2023-03-06T09:25:22.509Z,100432.88
2023-03-06T09:28:01.814Z,100428.88
2023-03-06T09:30:36.645Z,100431.94
2023-03-06T09:33:04.200Z,100430.44
2023-03-06T09:35:31.785Z,100432.81
2023-03-06T09:37:59.109Z,100434.16
2023-03-06T09:40:51.857Z,100426.66
2023-03-06T09:43:22.232Z,100438.06
2023-03-06T09:45:49.644Z,100436.81
2023-03-06T09:48:17.863Z,100436.63
2023-03-06T09:50:51.963Z,100429.69
2023-03-06T09:53:39.143Z,100434.66
2023-03-06T09:56:16.901Z,100430.81
2023-03-06T09:58:48.902Z,100430.44
2023-03-06T10:01:19.397Z,100427.72
2023-03-06T10:03:58.394Z,100432.88
2023-03-06T10:06:36.691Z,100426.19
2023-03-06T10:09:14.161Z,100429.53
2023-03-06T10:11:53.110Z,100424.66
2023-03-06T10:14:29.543Z,100425.47
2023-03-06T10:16:58.508Z,100423.59
2023-03-06T10:19:36.618Z,100426.22
2023-03-06T10:22:04.207Z,100412.88
2023-03-06T10:24:51.362Z,100414.19
2023-03-06T10:27:34.949Z,100414.72
2023-03-06T10:30:33.470Z,100414.81
2023-03-06T10:33:30.112Z,100403.47
2023-03-06T10:35:58.232Z,100408.91
2023-03-06T10:38:31.729Z,100406.50
2023-03-06T10:41:14.532Z,100410.91
2023-03-06T10:43:44.182Z,100407.06
2023-03-06T10:46:14.629Z,100404.63
2023-03-06T10:48:42.711Z,100402.31
2023-03-06T10:51:19.152Z,100406.06
2023-03-06T10:53:57.609Z,100396.19
2023-03-06T10:56:34.824Z,100407.03
2023-03-06T10:59:25.356Z,100405.47
2023-03-06T11:01:57.910Z,100409.91
2023-03-06T11:04:33.604Z,100396.50
2023-03-06T11:07:11.972Z,100388.78
2023-03-06T11:09:39.486Z,100388.19
2023-03-06T11:12:27.838Z,100396.81
2023-03-06T11:15:10.282Z,100388.81
2023-03-06T11:17:49.317Z,100385.44
2023-03-06T11:20:27.037Z,100377.75
2023-03-06T11:23:13.275Z,100385.19
2023-03-06T11:25:43.701Z,100381.53
2023-03-06T11:28:40.366Z,100371.00
2023-03-06T11:31:16.026Z,100386.34
2023-03-06T11:33:59.024Z,100385.09
2023-03-06T11:36:31.607Z,100389.06
2023-03-06T11:38:59.586Z,100376.97
2023-03-06T11:41:37.344Z,100386.47
2023-03-06T11:44:19.948Z,100385.81
2023-03-06T11:46:51.145Z,100374.22
2023-03-06T11:49:29.188Z,100371.16
2023-03-06T11:51:59.655Z,100372.13
2023-03-06T11:54:29.370Z,100365.69
2023-03-06T11:57:00.192Z,100379.84
2023-03-06T11:59:30.499Z,100370.41
2023-03-06T12:02:30.975Z,100369.88
2023-03-06T12:05:10.611Z,100374.78
2023-03-06T12:08:16.954Z,100366.28
2023-03-06T12:13:55.410Z,100362.53
2023-03-06T12:16:35.348Z,100365.22
2023-03-06T12:19:27.625Z,100354.97
2023-03-06T12:22:31.296Z,100345.19
2023-03-06T12:25:28.430Z,100357.09
2023-03-06T12:28:11.187Z,100346.53
2023-03-06T12:31:03.149Z,100348.09
2023-03-06T12:33:52.267Z,100364.19
2023-03-06T12:36:31.882Z,100350.97
2023-03-06T12:39:35.701Z,100341.25
2023-03-06T12:42:22.612Z,100338.03
2023-03-06T12:45:04.413Z,100338.06
2023-03-06T12:47:34.354Z,100339.59
2023-03-06T12:50:07.627Z,100344.31
2023-03-06T12:52:35.667Z,100341.69
2023-03-06T12:55:06.752Z,100342.16
2023-03-06T12:57:34.101Z,100334.25
2023-03-06T13:00:01.593Z,100331.63
2023-03-06T13:02:56.755Z,100334.16
2023-03-06T13:05:31.673Z,100335.69
2023-03-06T13:08:39.833Z,100325.75
2023-03-06T13:11:17.570Z,100319.94
2023-03-06T13:13:46.508Z,100322.16
2023-03-06T13:16:13.931Z,100311.81
2023-03-06T13:18:49.143Z,100316.50
2023-03-06T13:21:42.634Z,100311.31
2023-03-06T13:24:26.827Z,100318.53
2023-03-06T13:26:55.788Z,100307.88
2023-03-06T13:29:38.483Z,100315.38
2023-03-06T13:32:13.659Z,100316.91
2023-03-06T13:34:43.110Z,100308.97
2023-03-06T13:37:20.081Z,100305.84
2023-03-06T13:39:59.836Z,100298.44
2023-03-06T13:42:29.725Z,100292.75
2023-03-06T13:44:58.646Z,100305.63
2023-03-06T13:47:59.004Z,100298.41
2023-03-06T13:50:35.827Z,100294.34
2023-03-06T13:53:46.694Z,100298.63
2023-03-06T13:56:32.633Z,100293.22
2023-03-06T13:59:32.258Z,100288.41
2023-03-06T14:02:38.747Z,100288.72
2023-03-06T14:05:17.564Z,100292.44
2023-03-06T14:08:03.441Z,100296.56
2023-03-06T14:10:34.687Z,100293.72
2023-03-06T14:13:06.331Z,100290.84
2023-03-06T14:15:42.429Z,100290.28
2023-03-06T14:18:12.697Z,100285.53
2023-03-06T14:20:40.089Z,100291.78
2023-03-06T14:23:30.513Z,100290.38
2023-03-06T14:26:00.929Z,100283.50
2023-03-06T14:28:30.462Z,100290.31
2023-03-06T14:31:00.182Z,100291.19
2023-03-06T14:33:32.666Z,100281.56
2023-03-06T14:36:03.815Z,100290.44
2023-03-06T14:38:35.743Z,100278.75
2023-03-06T14:41:05.346Z,100281.13
2023-03-06T14:43:32.955Z,100287.28
2023-03-06T14:46:02.617Z,100275.69
2023-03-06T14:48:42.236Z,100284.09
2023-03-06T14:51:23.568Z,100281.50
2023-03-06T14:53:52.706Z,100277.81
2023-03-06T14:56:25.624Z,100276.88
2023-03-06T14:59:03.338Z,100277.63
2023-03-06T15:01:50.246Z,100270.19
2023-03-06T15:04:47.772Z,100275.94
2023-03-06T15:07:18.803Z,100273.66
2023-03-06T15:09:49.823Z,100257.56
2023-03-06T15:12:20.260Z,100259.59
2023-03-06T15:14:59.712Z,100262.81
2023-03-06T15:17:27.123Z,100263.25
2023-03-06T15:19:56.367Z,100252.09
2023-03-06T15:22:30.987Z,100254.09
2023-03-06T15:25:20.618Z,100258.09
2023-03-06T15:27:51.048Z,100259.53
2023-03-06T15:30:29.689Z,100260.97
2023-03-06T15:33:26.053Z,100259.25
2023-03-06T15:36:04.519Z,100256.78
2023-03-06T15:38:34.333Z,100260.81
2023-03-06T15:41:03.552Z,100253.91
2023-03-06T15:43:39.437Z,100255.72
2023-03-06T15:46:07.808Z,100244.22
2023-03-06T15:48:35.629Z,100250.56
2023-03-06T15:51:03.697Z,100245.63
2023-03-06T15:53:31.183Z,100245.84
2023-03-06T15:55:58.823Z,100240.38
2023-03-06T15:58:26.986Z,100233.88
2023-03-06T16:00:54.317Z,100236.69
2023-03-06T16:03:21.722Z,100237.91
2023-03-06T16:05:49.159Z,100234.78
2023-03-06T16:08:16.893Z,100225.53
2023-03-06T16:10:44.776Z,100227.38
2023-03-06T16:13:15.494Z,100224.69
2023-03-06T16:15:47.418Z,100218.34
2023-03-06T16:18:14.932Z,100214.78
2023-03-06T16:20:42.557Z,100222.25
2023-03-06T16:23:10.912Z,100216.91
2023-03-06T16:25:41.505Z,100221.28
2023-03-06T16:28:14.380Z,100217.38
2023-03-06T16:30:43.295Z,100213.41
2023-03-06T16:33:13.331Z,100216.69
2023-03-06T16:35:41.266Z,100216.06
2023-03-06T16:38:10.267Z,100214.09
2023-03-06T16:40:41.147Z,100210.06
2023-03-06T16:43:10.548Z,100205.47
2023-03-06T16:45:39.664Z,100197.53
2023-03-06T16:48:07.867Z,100201.59
2023-03-06T16:50:40.086Z,100203.16
2023-03-06T16:53:08.209Z,100198.03
2023-03-06T16:55:35.558Z,100203.03
2023-03-06T16:58:02.934Z,100199.34
2023-03-06T17:00:33.176Z,100201.59
2023-03-06T17:03:01.700Z,100202.69
2023-03-06T17:05:29.555Z,100199.53
2023-03-06T17:07:57.000Z,100198.16
2023-03-06T17:10:26.547Z,100206.81
2023-03-06T17:12:54.385Z,100203.78
2023-03-06T17:15:21.881Z,100201.47
2023-03-06T17:17:49.362Z,100197.78
2023-03-06T17:20:17.137Z,100201.06
2023-03-06T17:22:44.658Z,100199.84
2023-03-06T17:25:12.084Z,100193.22
2023-03-06T17:27:39.560Z,100191.19
2023-03-06T17:30:07.547Z,100189.25
2023-03-06T17:32:35.258Z,100195.94
2023-03-06T17:35:02.539Z,100192.28
2023-03-06T17:37:29.792Z,100202.75
2023-03-06T17:39:57.104Z,100199.31
2023-03-06T17:42:24.534Z,100193.03
2023-03-06T17:44:53.060Z,100192.28
2023-03-06T17:47:20.357Z,100191.78
2023-03-06T17:49:47.860Z,100187.03
2023-03-06T17:52:15.169Z,100186.88
2023-03-06T17:54:42.687Z,100189.16
2023-03-06T17:57:09.961Z,100193.63
2023-03-06T17:59:37.496Z,100185.19
2023-03-06T18:02:06.390Z,100190.41
2023-03-06T18:04:33.913Z,100193.19
2023-03-06T18:07:01.249Z,100189.03
2023-03-06T18:09:28.549Z,100185.56
2023-03-06T18:11:55.930Z,100184.63
2023-03-06T18:14:23.450Z,100184.97
2023-03-06T18:16:50.950Z,100182.44
2023-03-06T18:19:18.378Z,100181.66
2023-03-06T18:21:47.416Z,100187.88
2023-03-06T18:24:14.797Z,100185.63
2023-03-06T18:26:43.044Z,100189.41
2023-03-06T18:29:10.997Z,100188.91
2023-03-06T18:31:40.526Z,100190.16
2023-03-06T18:34:17.553Z,100186.72
2023-03-06T18:36:47.352Z,100185.88
2023-03-06T18:39:15.880Z,100185.38
2023-03-06T18:41:43.207Z,100186.56
2023-03-06T18:44:15.790Z,100185.56
2023-03-06T18:46:43.836Z,100178.09
2023-03-06T18:49:12.551Z,100185.25
2023-03-06T18:51:40.189Z,100180.53
2023-03-06T18:54:07.980Z,100175.97
2023-03-06T18:56:35.482Z,100185.50
2023-03-06T18:59:04.709Z,100175.63
2023-03-06T19:01:32.571Z,100164.13
2023-03-06T19:04:02.060Z,100165.94
2023-03-06T19:06:29.629Z,100173.56
2023-03-06T19:08:58.835Z,100164.50
2023-03-06T19:11:27.122Z,100173.97
2023-03-06T19:13:55.034Z,100163.59
2023-03-06T19:16:24.526Z,100164.75
2023-03-06T19:18:52.461Z,100157.25
2023-03-06T19:21:21.184Z,100153.31
2023-03-06T19:23:49.750Z,100148.00
2023-03-06T19:26:20.841Z,100140.19
2023-03-06T19:28:48.783Z,100151.19
2023-03-06T19:31:21.448Z,100146.13
2023-03-06T19:33:49.638Z,100144.53
2023-03-06T19:36:18.437Z,100146.09
2023-03-06T19:38:50.514Z,100158.09
2023-03-06T19:41:18.284Z,100153.31
2023-03-06T19:43:51.041Z,100150.91
2023-03-06T19:46:18.994Z,100145.78
2023-03-06T19:48:46.377Z,100149.47
2023-03-06T19:51:14.041Z,100139.72
2023-03-06T19:53:41.382Z,100148.47
2023-03-06T19:56:09.789Z,100148.47
2023-03-06T19:58:37.750Z,100149.84
2023-03-06T20:01:06.161Z,100149.66
2023-03-06T20:03:33.685Z,100147.63
2023-03-06T20:06:01.640Z,100157.56
2023-03-06T20:08:29.472Z,100146.50
2023-03-06T20:10:56.882Z,100147.97
2023-03-06T20:13:24.867Z,100139.53
2023-03-06T20:15:52.308Z,100141.84
2023-03-06T20:18:19.768Z,100136.41
2023-03-06T20:21:00.766Z,100132.53
2023-03-06T20:23:29.010Z,100134.94
2023-03-06T20:25:56.396Z,100137.56
2023-03-06T20:28:23.786Z,100132.78
2023-03-06T20:30:51.202Z,100127.97
2023-03-06T20:33:21.169Z,100127.81
2023-03-06T20:35:48.921Z,100122.81
2023-03-06T20:38:16.180Z,100130.19
2023-03-06T20:40:43.863Z,100141.53
2023-03-06T20:43:11.421Z,100134.47
2023-03-06T20:45:38.893Z,100143.31
2023-03-06T20:48:06.309Z,100141.06
2023-03-06T20:50:33.665Z,100150.63
2023-03-06T20:53:01.092Z,100144.94
2023-03-06T20:55:28.712Z,100146.69
2023-03-06T20:57:56.029Z,100142.81
2023-03-06T21:00:23.281Z,100128.03
2023-03-06T21:02:50.602Z,100138.75
2023-03-06T21:05:18.048Z,100133.63
2023-03-06T21:07:45.425Z,100135.19
2023-03-06T21:10:14.566Z,100134.59
2023-03-06T21:12:41.858Z,100133.16
2023-03-06T21:15:09.543Z,100136.50
2023-03-06T21:17:39.859Z,100140.81
2023-03-06T21:20:07.992Z,100143.06
2023-03-06T21:22:35.653Z,100137.63
2023-03-06T21:25:03.712Z,100139.38
2023-03-06T21:27:31.043Z,100136.75
2023-03-06T21:29:58.244Z,100138.56
2023-03-06T21:32:25.582Z,100135.75
2023-03-06T21:34:53.043Z,100124.72
2023-03-06T21:37:20.517Z,100114.44
2023-03-06T21:39:48.058Z,100117.88
2023-03-06T21:42:15.347Z,100114.13
2023-03-06T21:44:42.597Z,100108.97
2023-03-06T21:47:10.034Z,100113.69
2023-03-06T21:49:37.549Z,100109.06
2023-03-06T21:52:05.365Z,100108.88
2023-03-06T21:54:32.586Z,100104.38
2023-03-06T21:57:00.048Z,100112.66
2023-03-06T21:59:27.473Z,100103.47
2023-03-06T22:01:54.872Z,100107.09
2023-03-06T22:04:22.159Z,100107.25
2023-03-06T22:06:49.855Z,100114.00
2023-03-06T22:09:19.098Z,100109.69
2023-03-06T22:11:46.590Z,100099.22
2023-03-06T22:14:14.786Z,100106.72
2023-03-06T22:16:42.250Z,100110.41
2023-03-06T22:19:09.740Z,100105.38
2023-03-06T22:21:38.594Z,100105.88
2023-03-06T22:24:06.274Z,100104.28
2023-03-06T22:26:33.538Z,100098.91
2023-03-06T22:29:00.908Z,100095.47
2023-03-06T22:31:29.138Z,100100.41
2023-03-06T22:33:58.517Z,100098.13
2023-03-06T22:36:26.123Z,100090.75
2023-03-06T22:38:55.645Z,100094.13
2023-03-06T22:41:23.572Z,100095.28
2023-03-06T22:43:50.950Z,100089.06
2023-03-06T22:46:18.371Z,100090.38
2023-03-06T22:48:46.018Z,100092.00
2023-03-06T22:51:16.021Z,100090.97
2023-03-06T22:53:44.234Z,100090.75
2023-03-06T22:56:14.846Z,100086.44
2023-03-06T22:58:44.662Z,100080.44
2023-03-06T23:01:23.442Z,100088.88
2023-03-06T23:03:53.108Z,100072.78
2023-03-06T23:06:35.210Z,100081.69
2023-03-06T23:09:06.957Z,100069.59
2023-03-06T23:11:52.565Z,100068.31
2023-03-06T23:14:38.436Z,100066.63
2023-03-06T23:17:24.963Z,100073.25
2023-03-06T23:20:12.065Z,100065.25
2023-03-06T23:22:58.142Z,100070.78
2023-03-06T23:25:44.374Z,100066.72
2023-03-06T23:28:12.338Z,100069.25
2023-03-06T23:30:40.095Z,100067.06
2023-03-06T23:33:08.167Z,100053.72
2023-03-06T23:35:36.880Z,100064.91
2023-03-06T23:38:04.659Z,100061.38
2023-03-06T23:40:33.599Z,100055.06
2023-03-06T23:43:01.114Z,100058.88
2023-03-06T23:45:28.439Z,100052.84
2023-03-06T23:47:56.399Z,100056.16
2023-03-06T23:50:26.082Z,100061.19
2023-03-06T23:52:54.380Z,100047.19
2023-03-06T23:55:22.149Z,100047.78
2023-03-06T23:57:49.634Z,100049.59
